Time;durP1;ratioP1;P1;durP2;ratioP2;P2;SDS_P1;SDS_P2;PMS_P1;PMS_P2;Temp;Humidity;BMP_temperature;BMP_pressure;BME280_temperature;BME280_humidity;BME280_pressure;Samples;Min_cycle;Max_cycle;Signal;HPM_P1;HPM_P2
2020/12/11 00:00:56;;;;;;;;;;;;;;;20.14;43.63;100017.94;5097170;28;763;-58
2020/12/11 00:03:22;;;;;;;;;;;;;;;20.79;41.84;100013.69;5096727;28;823;-52
2020/12/11 00:05:47;;;;;;;;;;;;;;;20.29;43.01;100022.25;5096114;28;1016;-50
2020/12/11 00:08:13;;;;;;;;;;;;;;;20.27;43.08;100016.19;5097013;28;815;-57
2020/12/11 00:10:38;;;;;;;;;;;;;;;19.46;44.52;100015.97;5097217;28;819;-51
2020/12/11 00:13:04;;;;;;;;;;;;;;;20.10;43.69;100020.50;5095517;28;1909;-64
2020/12/11 00:15:29;;;;;;;;;;;;;;;20.66;42.20;100028.41;5110644;28;1169;-52
2020/12/11 00:17:55;;;;;;;;;;;;;;;20.19;43.45;100020.56;5117160;28;1051;-59
2020/12/11 00:20:20;;;;;;;;;;;;;;;20.07;43.46;100015.59;5100850;28;1011;-54
2020/12/11 00:22:45;;;;;;;;;;;;;;;19.38;44.38;100008.44;5096598;28;775;-50
2020/12/11 00:25:11;;;;;;;;;;;;;;;20.40;42.87;100007.03;5096832;28;830;-53
2020/12/11 00:27:36;;;;;;;;;;;;;;;20.62;42.21;100011.66;5096321;28;795;-50
2020/12/11 00:30:02;;;;;;;;;;;;;;;20.16;43.53;99999.09;5096493;28;867;-51
2020/12/11 00:32:28;;;;;;;;;;;;;;;19.92;43.81;99993.94;5096645;28;1914;-59
2020/12/11 00:34:54;;;;;;;;;;;;;;;19.35;44.45;99995.28;5095938;28;1012;-49
2020/12/11 00:37:19;;;;;;;;;;;;;;;20.21;43.52;99992.63;5096716;28;744;-62
2020/12/11 00:39:44;;;;;;;;;;;;;;;20.75;42.03;99976.78;5096649;28;739;-49
2020/12/11 00:42:10;;;;;;;;;;;;;;;20.23;43.34;99985.69;5096545;28;752;-61
2020/12/11 00:44:35;;;;;;;;;;;;;;;20.16;43.15;99990.81;5096668;28;832;-53
2020/12/11 00:47:04;;;;;;;;;;;;;;;19.53;44.10;99987.97;5078436;28;811;-53
2020/12/11 00:49:29;;;;;;;;;;;;;;;20.14;43.55;99984.81;5095698;28;992;-49
2020/12/11 00:51:55;;;;;;;;;;;;;;;20.80;41.96;99978.56;5096201;28;1913;-50
2020/12/11 00:54:22;;;;;;;;;;;;;;;20.23;43.11;99980.16;5096541;28;812;-60
2020/12/11 00:56:48;;;;;;;;;;;;;;;20.06;43.29;99978.09;5096086;28;735;-48
2020/12/11 00:59:13;;;;;;;;;;;;;;;19.52;44.40;99974.47;5096212;28;779;-49
2020/12/11 01:01:38;;;;;;;;;;;;;;;20.45;42.77;99973.72;5096386;28;740;-50
2020/12/11 01:04:04;;;;;;;;;;;;;;;20.62;42.33;99973.00;5095761;28;1000;-48
2020/12/11 01:06:29;;;;;;;;;;;;;;;20.18;43.33;99964.53;5094946;28;799;-49
2020/12/11 01:08:55;;;;;;;;;;;;;;;19.87;44.00;99959.03;5096293;28;752;-57
2020/12/11 01:11:20;;;;;;;;;;;;;;;19.18;44.97;99959.28;5095842;28;1918;-51
2020/12/11 01:13:46;;;;;;;;;;;;;;;20.31;43.32;99953.69;5096128;28;847;-57
2020/12/11 01:16:11;;;;;;;;;;;;;;;20.54;42.49;99956.38;5117169;28;1102;-60
2020/12/11 01:18:36;;;;;;;;;;;;;;;20.26;43.15;99954.66;5118413;28;1026;-55
2020/12/11 01:21:02;;;;;;;;;;;;;;;19.95;43.66;99958.25;5100017;28;819;-58
2020/12/11 01:23:27;;;;;;;;;;;;;;;19.13;45.83;99950.00;5098476;28;853;-54
2020/12/11 01:25:53;;;;;;;;;;;;;;;20.18;43.59;99950.72;5099593;28;779;-52
2020/12/11 01:28:18;;;;;;;;;;;;;;;20.61;42.33;99942.94;5099856;28;779;-52
2020/12/11 01:30:44;;;;;;;;;;;;;;;20.21;43.28;99938.22;5100292;28;871;-53
2020/12/11 01:33:09;;;;;;;;;;;;;;;20.06;43.39;99939.47;5099360;28;1902;-52
2020/12/11 01:35:35;;;;;;;;;;;;;;;19.51;44.81;99939.78;5099967;28;1009;-51
2020/12/11 01:38:00;;;;;;;;;;;;;;;20.41;42.89;99942.38;5099793;28;696;-55
2020/12/11 01:40:25;;;;;;;;;;;;;;;20.61;42.26;99934.66;5099212;28;768;-49
2020/12/11 01:42:51;;;;;;;;;;;;;;;20.16;43.55;99941.13;5099717;28;751;-55
2020/12/11 01:45:16;;;;;;;;;;;;;;;19.92;43.63;99924.94;5098538;28;819;-48
2020/12/11 01:47:42;;;;;;;;;;;;;;;19.29;45.44;99927.59;5099007;28;779;-54
2020/12/11 01:50:08;;;;;;;;;;;;;;;20.33;43.25;99921.88;5099177;28;1008;-48
2020/12/11 01:52:34;;;;;;;;;;;;;;;20.56;42.67;99919.03;5098037;28;1909;-60
2020/12/11 01:54:59;;;;;;;;;;;;;;;20.34;43.13;99911.66;5099018;28;779;-49
2020/12/11 01:57:39;;;;;;;;;;;;;;;19.94;43.72;99892.34;5099317;28;751;-61
2020/12/11 02:00:05;;;;;;;;;;;;;;;19.52;45.32;99897.25;5099465;28;961;-60
2020/12/11 02:02:32;;;;;;;;;;;;;;;20.43;43.18;99892.34;5098700;28;795;-61
2020/12/11 02:04:57;;;;;;;;;;;;;;;20.50;42.45;99898.22;5097873;28;1271;-52
2020/12/11 02:07:23;;;;;;;;;;;;;;;20.26;43.29;99885.66;5099166;28;755;-60
2020/12/11 02:09:48;;;;;;;;;;;;;;;19.78;44.08;99895.50;5097495;28;775;-52
2020/12/11 02:12:14;;;;;;;;;;;;;;;19.65;44.83;99904.66;5099122;28;1906;-62
2020/12/11 02:14:39;;;;;;;;;;;;;;;20.59;42.49;99906.50;5106086;28;1169;-50
2020/12/11 02:17:05;;;;;;;;;;;;;;;20.50;42.45;99907.31;5118755;28;1113;-56
2020/12/11 02:19:33;;;;;;;;;;;;;;;20.28;43.24;99908.22;5109927;28;1192;-60
2020/12/11 02:21:59;;;;;;;;;;;;;;;19.78;43.95;99914.81;5097678;28;815;-53
2020/12/11 02:24:25;;;;;;;;;;;;;;;19.85;44.28;99919.06;5098467;28;771;-53
2020/12/11 02:26:54;;;;;;;;;;;;;;;20.69;42.42;99909.00;5098631;28;839;-49
2020/12/11 02:29:19;;;;;;;;;;;;;;;21.18;41.22;99901.41;5098595;28;807;-52
2020/12/11 02:31:45;;;;;;;;;;;;;;;20.93;41.57;99888.38;5097167;28;1905;-52
2020/12/11 02:34:10;;;;;;;;;;;;;;;20.51;42.72;99889.63;5098333;28;938;-52
2020/12/11 02:36:36;;;;;;;;;;;;;;;19.97;43.91;99889.75;5097283;28;808;-52
2020/12/11 02:39:01;;;;;;;;;;;;;;;19.45;44.46;99898.53;5098554;28;854;-52
2020/12/11 02:41:26;;;;;;;;;;;;;;;19.82;44.60;99906.72;5098541;28;775;-53
2020/12/11 02:43:52;;;;;;;;;;;;;;;20.63;42.24;99893.69;5098378;28;744;-60
2020/12/11 02:46:17;;;;;;;;;;;;;;;20.35;43.23;99902.22;5098785;28;816;-55
2020/12/11 02:48:43;;;;;;;;;;;;;;;20.20;43.42;99883.34;5097894;28;961;-52
2020/12/11 02:51:09;;;;;;;;;;;;;;;19.59;44.43;99892.16;5098214;28;756;-51
2020/12/11 02:53:35;;;;;;;;;;;;;;;19.37;45.97;99902.06;5098313;28;1984;-58
2020/12/11 02:56:00;;;;;;;;;;;;;;;20.46;43.08;99909.09;5097937;28;771;-52
2020/12/11 02:58:26;;;;;;;;;;;;;;;20.38;42.89;99907.09;5098036;28;840;-52
2020/12/11 03:00:51;;;;;;;;;;;;;;;20.21;43.59;99901.56;5098191;28;772;-59
2020/12/11 03:03:17;;;;;;;;;;;;;;;19.88;43.88;99907.41;5097774;28;808;-53
2020/12/11 03:05:42;;;;;;;;;;;;;;;19.07;46.44;99903.59;5097480;28;965;-61
2020/12/11 03:08:08;;;;;;;;;;;;;;;20.34;43.45;99908.88;5098057;28;752;-60
2020/12/11 03:10:33;;;;;;;;;;;;;;;20.54;42.74;99910.25;5097675;28;744;-59
2020/12/11 03:12:58;;;;;;;;;;;;;;;20.16;43.85;99919.88;5097963;28;1909;-57
2020/12/11 03:15:24;;;;;;;;;;;;;;;19.93;43.89;99918.31;5111071;28;1172;-59
2020/12/11 03:17:49;;;;;;;;;;;;;;;19.20;44.90;99924.78;5117664;28;1151;-54
2020/12/11 03:20:22;;;;;;;;;;;;;;;20.14;43.98;99911.09;5102854;28;1012;-62
2020/12/11 03:22:49;;;;;;;;;;;;;;;20.45;42.77;99909.41;5096620;28;768;-51
2020/12/11 03:25:14;;;;;;;;;;;;;;;20.13;43.76;99909.47;5097387;28;799;-48
2020/12/11 03:27:39;;;;;;;;;;;;;;;19.98;43.93;99913.47;5097477;28;747;-50
2020/12/11 03:30:05;;;;;;;;;;;;;;;19.35;45.21;99907.06;5097721;28;786;-59
2020/12/11 03:32:30;;;;;;;;;;;;;;;20.27;43.37;99906.63;5097081;28;2029;-49
2020/12/11 03:34:56;;;;;;;;;;;;;;;20.69;42.47;99903.47;5097143;28;930;-49
2020/12/11 03:37:21;;;;;;;;;;;;;;;20.36;43.12;99892.81;5097403;28;740;-57
2020/12/11 03:39:46;;;;;;;;;;;;;;;20.05;43.69;99888.19;5095308;28;779;-53
2020/12/11 03:42:12;;;;;;;;;;;;;;;19.32;44.43;99900.25;5097391;28;554;-48
2020/12/11 03:44:37;;;;;;;;;;;;;;;20.20;43.80;99875.06;5095795;28;903;-52
2020/12/11 03:47:03;;;;;;;;;;;;;;;20.85;42.17;99877.00;5097112;28;799;-51
2020/12/11 03:49:28;;;;;;;;;;;;;;;20.32;43.32;99880.78;5096853;28;1012;-49
2020/12/11 03:51:54;;;;;;;;;;;;;;;20.11;43.52;99880.56;5097223;28;1978;-51
2020/12/11 03:54:19;;;;;;;;;;;;;;;19.44;44.63;99869.34;5096641;28;835;-49
2020/12/11 03:56:46;;;;;;;;;;;;;;;19.88;44.52;99866.03;5097477;28;784;-49
2020/12/11 03:59:12;;;;;;;;;;;;;;;20.58;42.73;99855.16;5097211;28;736;-58
2020/12/11 04:01:37;;;;;;;;;;;;;;;20.14;43.48;99864.16;5096819;28;776;-50
2020/12/11 04:04:03;;;;;;;;;;;;;;;20.06;43.89;99864.94;5096706;28;957;-59
2020/12/11 04:06:28;;;;;;;;;;;;;;;19.52;44.47;99862.25;5097053;28;807;-50
2020/12/11 04:08:53;;;;;;;;;;;;;;;20.21;43.74;99857.38;5096610;28;811;-50
2020/12/11 04:11:19;;;;;;;;;;;;;;;20.80;42.06;99857.84;5097259;28;807;-51
2020/12/11 04:13:44;;;;;;;;;;;;;;;20.20;43.66;99858.50;5096842;28;1902;-46
2020/12/11 04:16:10;;;;;;;;;;;;;;;20.00;43.91;99852.44;5115889;28;1212;-47
2020/12/11 04:18:35;;;;;;;;;;;;;;;19.24;45.21;99858.84;5113903;28;1046;-49
2020/12/11 04:21:01;;;;;;;;;;;;;;;20.08;44.02;99859.94;5097342;28;781;-46
2020/12/11 04:23:26;;;;;;;;;;;;;;;20.68;42.52;99860.44;5096304;28;751;-47
2020/12/11 04:25:52;;;;;;;;;;;;;;;20.27;43.58;99878.19;5097074;28;779;-46
2020/12/11 04:28:17;;;;;;;;;;;;;;;20.07;43.98;99890.63;5096663;28;772;-46
2020/12/11 04:30:43;;;;;;;;;;;;;;;19.59;44.78;99895.72;5096081;28;875;-47
2020/12/11 04:33:08;;;;;;;;;;;;;;;19.89;44.78;99889.72;5096554;28;1906;-48
2020/12/11 04:35:34;;;;;;;;;;;;;;;20.65;42.71;99894.16;5096134;28;957;-47
2020/12/11 04:38:00;;;;;;;;;;;;;;;20.14;43.75;99891.78;5096367;28;776;-49
2020/12/11 04:40:25;;;;;;;;;;;;;;;19.99;44.05;99892.19;5096648;28;878;-46
2020/12/11 04:42:51;;;;;;;;;;;;;;;19.74;44.57;99894.50;5096459;28;823;-49
2020/12/11 04:45:16;;;;;;;;;;;;;;;19.45;45.47;99892.22;5096137;28;740;-46
2020/12/11 04:47:45;;;;;;;;;;;;;;;20.37;43.54;99888.94;5096519;28;764;-48
2020/12/11 04:50:11;;;;;;;;;;;;;;;20.70;42.48;99894.06;5097453;28;1076;-49
2020/12/11 04:52:37;;;;;;;;;;;;;;;20.20;43.96;99900.72;5098623;28;1914;-48
2020/12/11 04:55:02;;;;;;;;;;;;;;;20.11;44.05;99900.69;5096434;28;1470;-50
2020/12/11 04:57:28;;;;;;;;;;;;;;;19.53;45.24;99904.41;5097379;28;1336;-57
2020/12/11 04:59:53;;;;;;;;;;;;;;;20.35;43.56;99905.00;5093888;28;1182;-48
2020/12/11 05:02:19;;;;;;;;;;;;;;;20.44;43.28;99905.84;5100762;28;800;-46
2020/12/11 05:04:44;;;;;;;;;;;;;;;20.11;43.95;99906.22;5099970;28;949;-58
2020/12/11 05:07:10;;;;;;;;;;;;;;;19.79;44.94;99912.84;5098710;28;788;-58
2020/12/11 05:09:35;;;;;;;;;;;;;;;19.39;45.05;99921.88;5100567;28;772;-56
2020/12/11 05:12:11;;;;;;;;;;;;;;;20.23;43.85;99911.16;5098415;28;1990;-48
2020/12/11 05:14:36;;;;;;;;;;;;;;;20.66;42.46;99915.13;5105211;28;1129;-62
2020/12/11 05:17:03;;;;;;;;;;;;;;;20.06;44.01;99911.88;5121039;28;734;-64
2020/12/11 05:19:29;;;;;;;;;;;;;;;19.78;44.51;99925.84;5109317;28;1026;-48
2020/12/11 05:21:54;;;;;;;;;;;;;;;19.14;45.08;99926.84;5098620;28;878;-54
2020/12/11 05:24:20;;;;;;;;;;;;;;;19.99;44.52;99928.91;5097723;28;779;-58
2020/12/11 05:26:45;;;;;;;;;;;;;;;20.58;42.99;99932.50;5098502;28;743;-54
2020/12/11 05:29:10;;;;;;;;;;;;;;;20.06;44.31;99936.69;5098725;28;800;-48
2020/12/11 05:31:36;;;;;;;;;;;;;;;20.13;43.81;99939.00;5097078;28;1913;-51
2020/12/11 05:34:03;;;;;;;;;;;;;;;19.35;44.75;99942.91;5098045;28;989;-52
2020/12/11 05:36:39;;;;;;;;;;;;;;;20.05;44.46;99945.31;5097583;28;792;-48
2020/12/11 05:39:05;;;;;;;;;;;;;;;20.64;42.75;99947.81;5097276;28;869;-48
2020/12/11 05:41:31;;;;;;;;;;;;;;;20.25;43.67;99935.66;5098317;28;827;-54
2020/12/11 05:43:56;;;;;;;;;;;;;;;20.08;43.81;99941.94;5098438;28;799;-48
2020/12/11 05:46:27;;;;;;;;;;;;;;;19.31;45.44;99947.41;5098082;28;915;-49
2020/12/11 05:48:53;;;;;;;;;;;;;;;20.03;44.22;99953.91;5097806;28;1108;-49
2020/12/11 05:51:18;;;;;;;;;;;;;;;20.73;42.31;99951.41;5098419;28;728;-51
2020/12/11 05:53:44;;;;;;;;;;;;;;;20.21;43.81;99954.78;5096584;28;1917;-55
2020/12/11 05:56:09;;;;;;;;;;;;;;;19.98;44.30;99951.28;5098141;28;748;-47
2020/12/11 05:58:34;;;;;;;;;;;;;;;19.33;45.35;99956.19;5098256;28;810;-58
2020/12/11 06:01:00;;;;;;;;;;;;;;;19.80;44.92;99956.69;5097091;28;724;-46
2020/12/11 06:03:26;;;;;;;;;;;;;;;20.60;43.04;99953.16;5098394;28;739;-57
2020/12/11 06:05:55;;;;;;;;;;;;;;;20.20;43.86;99963.41;5096480;28;934;-46
2020/12/11 06:08:21;;;;;;;;;;;;;;;20.15;43.92;99959.66;5095998;28;928;-51
2020/12/11 06:10:46;;;;;;;;;;;;;;;19.41;45.02;99960.94;5098043;28;788;-46
2020/12/11 06:13:11;;;;;;;;;;;;;;;19.46;45.71;99968.28;5079775;28;1986;-46
2020/12/11 06:15:38;;;;;;;;;;;;;;;20.29;43.74;99969.78;5112514;28;1148;-52
2020/12/11 06:18:06;;;;;;;;;;;;;;;20.31;43.32;99973.84;5092469;28;707895;-57
2020/12/11 06:20:32;;;;;;;;;;;;;;;20.10;43.87;99970.81;5101304;28;1021;-55
2020/12/11 06:23:21;;;;;;;;;;;;;;;19.82;44.18;99973.78;5098346;28;827;-55
2020/12/11 06:25:53;;;;;;;;;;;;;;;19.42;45.81;99975.53;5090484;28;1115;-57
2020/12/11 06:28:37;;;;;;;;;;;;;;;20.50;43.16;99970.03;5098509;28;811;-57
2020/12/11 06:31:03;;;;;;;;;;;;;;;20.42;43.15;99968.03;5098432;28;811;-58
2020/12/11 06:33:29;;;;;;;;;;;;;;;20.08;43.94;99978.63;5098558;28;1926;-55
2020/12/11 06:35:58;;;;;;;;;;;;;;;19.86;44.38;99975.88;5098165;28;989;-56
2020/12/11 06:38:42;;;;;;;;;;;;;;;19.83;44.78;99991.94;5098254;28;744;-50
2020/12/11 06:41:08;;;;;;;;;;;;;;;20.71;42.55;99988.81;5098468;28;795;-47
2020/12/11 06:43:37;;;;;;;;;;;;;;;20.28;43.67;99995.75;5097839;28;886;-58
2020/12/11 06:46:12;;;;;;;;;;;;;;;20.01;44.15;99994.81;5098475;28;807;-58
2020/12/11 06:48:57;;;;;;;;;;;;;;;19.42;45.21;99998.44;5097822;28;942;-58
2020/12/11 06:51:22;;;;;;;;;;;;;;;19.84;44.87;99998.28;5097452;28;1107;-57
2020/12/11 06:53:48;;;;;;;;;;;;;;;20.66;42.86;99990.56;5097999;28;1971;-57
2020/12/11 06:56:33;;;;;;;;;;;;;;;20.07;44.09;99992.72;5098128;28;776;-59
2020/12/11 06:59:17;;;;;;;;;;;;;;;19.94;44.04;100000.78;5097316;28;1855;-57
2020/12/11 07:01:43;;;;;;;;;;;;;;;19.39;45.00;100007.31;5098002;28;748;-57
2020/12/11 07:04:08;;;;;;;;;;;;;;;20.26;43.77;100003.53;5097324;28;942;-55
2020/12/11 07:06:34;;;;;;;;;;;;;;;20.60;42.43;99996.53;5096288;28;755;-56
2020/12/11 07:09:02;;;;;;;;;;;;;;;20.15;43.69;99991.97;5097768;28;826;-57
2020/12/11 07:11:27;;;;;;;;;;;;;;;19.92;44.26;99991.16;5097972;28;838;-56
2020/12/11 07:13:53;;;;;;;;;;;;;;;19.26;44.63;99995.19;5096522;28;1973;-57
2020/12/11 07:16:18;;;;;;;;;;;;;;;20.01;44.39;100000.31;5118083;28;759;-57
2020/12/11 07:18:44;;;;;;;;;;;;;;;20.54;42.86;99997.78;5115264;28;1034;-58
2020/12/11 07:21:10;;;;;;;;;;;;;;;20.15;43.91;100000.25;5097442;28;779;-56
2020/12/11 07:23:36;;;;;;;;;;;;;;;19.94;44.28;99997.22;5097512;28;823;-54
2020/12/11 07:26:02;;;;;;;;;;;;;;;19.47;44.99;99995.56;5097333;28;759;-58
2020/12/11 07:28:27;;;;;;;;;;;;;;;20.14;44.02;99995.84;5096985;28;732;-57
2020/12/11 07:30:53;;;;;;;;;;;;;;;20.82;42.06;99993.69;5097837;28;815;-57
2020/12/11 07:33:18;;;;;;;;;;;;;;;20.16;43.81;99986.13;5097153;28;1977;-49
2020/12/11 07:35:44;;;;;;;;;;;;;;;20.02;44.05;99979.88;5096494;28;930;-54
2020/12/11 07:38:10;;;;;;;;;;;;;;;19.45;44.40;99981.25;5097183;28;751;-55
2020/12/11 07:40:35;;;;;;;;;;;;;;;19.81;44.83;99982.34;5097124;28;775;-60
2020/12/11 07:43:03;;;;;;;;;;;;;;;20.62;42.71;99966.63;5096742;28;875;-56
2020/12/11 07:45:30;;;;;;;;;;;;;;;20.13;43.95;99964.69;5097125;28;840;-56
2020/12/11 07:47:55;;;;;;;;;;;;;;;20.02;43.83;99960.56;5096814;28;808;-51
2020/12/11 07:50:24;;;;;;;;;;;;;;;19.55;44.88;99955.38;5096489;28;997;-57
2020/12/11 07:52:50;;;;;;;;;;;;;;;19.78;44.90;99958.13;5096911;28;1914;-50
2020/12/11 07:55:16;;;;;;;;;;;;;;;20.70;42.51;99960.34;5096757;28;783;-59
2020/12/11 07:57:41;;;;;;;;;;;;;;;20.45;43.04;99959.91;5096801;28;819;-61
2020/12/11 08:00:10;;;;;;;;;;;;;;;20.10;43.97;99958.97;5095640;28;1428;-48
2020/12/11 08:02:36;;;;;;;;;;;;;;;19.48;45.05;99961.31;5096632;28;747;-59
2020/12/11 08:05:05;;;;;;;;;;;;;;;19.77;44.93;99970.31;5094871;28;989;-47
2020/12/11 08:07:31;;;;;;;;;;;;;;;20.67;42.63;99974.78;5096780;28;771;-54
2020/12/11 08:10:09;;;;;;;;;;;;;;;20.29;43.52;99976.09;5096440;28;731;-61
2020/12/11 08:12:35;;;;;;;;;;;;;;;19.93;44.47;99970.72;5096613;28;1976;-58
2020/12/11 08:15:00;;;;;;;;;;;;;;;19.41;45.18;99969.22;5106386;28;1062;-48
2020/12/11 08:17:26;;;;;;;;;;;;;;;19.51;45.39;99970.09;5116628;28;1149;-55
2020/12/11 08:20:03;;;;;;;;;;;;;;;20.48;43.35;99969.50;5104415;28;945;-59
2020/12/11 08:22:35;;;;;;;;;;;;;;;20.32;43.37;99971.91;5096753;28;748;-58
2020/12/11 08:25:15;;;;;;;;;;;;;;;20.06;44.05;99971.78;5096127;28;747;-58
2020/12/11 08:27:41;;;;;;;;;;;;;;;19.64;44.76;99972.81;5096118;28;791;-58
2020/12/11 08:30:14;;;;;;;;;;;;;;;19.74;45.13;99984.69;5094822;28;886;-48
2020/12/11 08:32:40;;;;;;;;;;;;;;;20.75;42.59;99984.25;5096556;28;1985;-59
2020/12/11 08:35:12;;;;;;;;;;;;;;;21.30;41.33;99991.97;5095731;28;1005;-55
2020/12/11 08:37:48;;;;;;;;;;;;;;;20.94;42.17;99987.53;5096177;28;783;-59
2020/12/11 08:40:14;;;;;;;;;;;;;;;20.46;43.25;99993.88;5096357;28;843;-63
2020/12/11 08:42:47;;;;;;;;;;;;;;;19.90;44.00;99990.69;5096062;28;486;-47
2020/12/11 08:45:22;;;;;;;;;;;;;;;19.33;45.51;99989.25;5095038;28;836;-45
2020/12/11 08:50:50;;;;;;;;;;;;;;;19.62;45.42;99990.78;5095538;28;1008;-56
2020/12/11 08:53:13;;;;;;;;;;;;;;;19.59;45.40;99988.66;5095559;28;1926;-56
2020/12/11 08:55:38;;;;;;;;;;;;;;;19.72;45.02;99986.97;5096228;28;855;-60
2020/12/11 08:58:04;;;;;;;;;;;;;;;19.72;45.01;99979.50;5095768;28;787;-53
2020/12/11 09:00:30;;;;;;;;;;;;;;;19.78;44.84;99972.75;5095014;28;783;-55
2020/12/11 09:02:55;;;;;;;;;;;;;;;19.75;44.86;99976.09;5096194;28;791;-56
2020/12/11 09:05:24;;;;;;;;;;;;;;;19.97;44.30;99974.50;5095191;28;926;-56
2020/12/11 09:07:50;;;;;;;;;;;;;;;20.13;44.01;99980.41;5095991;28;819;-56
2020/12/11 09:10:16;;;;;;;;;;;;;;;20.12;43.91;99976.84;5096102;28;794;-52
2020/12/11 09:12:41;;;;;;;;;;;;;;;20.08;44.04;99981.38;5095506;28;1985;-56
2020/12/11 09:15:07;;;;;;;;;;;;;;;20.03;44.46;99975.97;5106538;28;1156;-50
2020/12/11 09:17:33;;;;;;;;;;;;;;;20.01;44.15;99975.50;5116560;28;1106;-59
2020/12/11 09:19:58;;;;;;;;;;;;;;;20.00;44.23;99982.94;5103086;28;1007;-60
2020/12/11 09:22:24;;;;;;;;;;;;;;;20.15;43.86;99984.47;5095963;28;826;-59
2020/12/11 09:24:49;;;;;;;;;;;;;;;20.14;43.84;99982.84;5095906;28;748;-60
2020/12/11 09:27:15;;;;;;;;;;;;;;;20.13;43.95;99989.53;5095467;28;846;-51
2020/12/11 09:29:44;;;;;;;;;;;;;;;20.09;44.07;99983.00;5096062;28;822;-61
2020/12/11 09:32:15;;;;;;;;;;;;;;;20.27;43.83;99977.56;5095843;28;1976;-58
2020/12/11 09:34:41;;;;;;;;;;;;;;;20.31;43.77;99976.63;5095077;28;1020;-58
2020/12/11 09:37:06;;;;;;;;;;;;;;;20.25;43.70;99979.84;5097822;28;728;-48
2020/12/11 09:39:32;;;;;;;;;;;;;;;20.17;43.88;99976.72;5098230;28;835;-58
2020/12/11 09:42:50;;;;;;;;;;;;;;;20.07;44.12;99982.50;5099042;28;756;-51
2020/12/11 09:52:54;;;;;;;;;;;;;;;20.28;43.88;99979.19;5099270;28;1923;-57
2020/12/11 09:55:19;;;;;;;;;;;;;;;20.17;44.11;99973.97;5099522;28;930;-57
2020/12/11 09:57:45;;;;;;;;;;;;;;;20.22;43.96;99972.19;5098922;28;738;-49
2020/12/11 10:00:11;;;;;;;;;;;;;;;20.28;43.93;99968.16;5099146;28;791;-57
2020/12/11 10:02:52;;;;;;;;;;;;;;;20.40;43.41;99960.09;5099210;28;847;-53
2020/12/11 10:05:19;;;;;;;;;;;;;;;20.29;43.83;99967.03;5098162;28;1065;-52
2020/12/11 10:07:44;;;;;;;;;;;;;;;20.35;43.73;99962.97;5099002;28;835;-60
2020/12/11 10:10:10;;;;;;;;;;;;;;;20.42;43.36;99966.09;5098849;28;851;-55
2020/12/11 10:12:35;;;;;;;;;;;;;;;20.33;43.53;99981.81;5098387;28;1917;-51
2020/12/11 10:15:06;;;;;;;;;;;;;;;20.39;43.83;99965.94;5108790;28;1101;-53
2020/12/11 10:17:32;;;;;;;;;;;;;;;20.51;43.17;99961.41;5118935;28;1003;-54
2020/12/11 10:19:57;;;;;;;;;;;;;;;20.45;43.66;99962.69;5106138;28;964;-53
2020/12/11 10:22:23;;;;;;;;;;;;;;;20.49;43.24;99960.91;5099068;28;752;-47
2020/12/11 10:24:48;;;;;;;;;;;;;;;20.49;43.33;99957.34;5099149;28;779;-47
2020/12/11 10:27:14;;;;;;;;;;;;;;;20.63;42.89;99968.28;5098123;28;768;-54
2020/12/11 10:29:39;;;;;;;;;;;;;;;20.66;42.99;99962.09;5098612;28;755;-50
2020/12/11 10:32:05;;;;;;;;;;;;;;;20.66;42.90;99962.09;5098815;28;1968;-47
2020/12/11 10:34:31;;;;;;;;;;;;;;;20.59;42.89;99962.56;5097661;28;1013;-56
2020/12/11 10:36:56;;;;;;;;;;;;;;;20.53;43.35;99963.84;5100534;28;899;-57
2020/12/11 10:39:22;;;;;;;;;;;;;;;20.64;43.11;99967.94;5097249;28;981;-59
2020/12/11 10:41:47;;;;;;;;;;;;;;;20.52;43.37;99965.81;5097635;28;890;-52
2020/12/11 10:44:13;;;;;;;;;;;;;;;20.60;42.99;99964.19;5087573;28;1073;-62
2020/12/11 10:46:38;;;;;;;;;;;;;;;20.64;42.81;99967.13;5071997;28;1197;-61
2020/12/11 10:49:04;;;;;;;;;;;;;;;20.68;42.99;99966.19;5069814;28;1100;-62
2020/12/11 10:51:29;;;;;;;;;;;;;;;20.76;42.88;99967.38;5071809;28;1295;-57
2020/12/11 10:53:55;;;;;;;;;;;;;;;20.59;43.06;99972.81;5078154;28;1909;-53
2020/12/11 10:56:20;;;;;;;;;;;;;;;20.72;42.71;99960.84;5084496;28;1179;-53
2020/12/11 10:58:48;;;;;;;;;;;;;;;20.40;43.73;99960.09;5066924;28;1193;-56
2020/12/11 11:01:14;;;;;;;;;;;;;;;20.56;43.06;99960.44;5084395;28;1016;-58
2020/12/11 11:03:39;;;;;;;;;;;;;;;20.67;42.96;99964.56;5078606;28;1089;-48
2020/12/11 11:06:27;;;;;;;;;;;;;;;20.63;43.11;99958.03;5083193;28;1037;-55
2020/12/11 11:11:23;;;;;;;;;;;;;;;20.72;42.82;99963.63;5097436;28;748;-61
2020/12/11 11:16:17;;;;;;;;;;;;;;;20.97;42.34;99967.56;5117614;28;1224;-57
2020/12/11 11:18:49;;;;;;;;;;;;;;;20.82;42.52;99971.59;5115107;28;1035;-54
2020/12/11 11:26:41;;;;;;;;;;;;;;;20.91;42.40;99974.38;5095618;28;781;-56
2020/12/11 11:29:07;;;;;;;;;;;;;;;20.87;42.58;99967.06;5104967;28;740;-54
2020/12/11 11:31:32;;;;;;;;;;;;;;;20.89;42.42;99973.88;5100254;28;935;-56
2020/12/11 11:34:01;;;;;;;;;;;;;;;20.87;42.54;99964.28;5081096;28;1902;-57
2020/12/11 11:36:27;;;;;;;;;;;;;;;20.89;42.40;99971.13;5080995;28;1018;-46
2020/12/11 11:38:52;;;;;;;;;;;;;;;20.95;42.57;99963.50;5084524;28;1046;-54
2020/12/11 11:41:43;;;;;;;;;;;;;;;20.98;42.36;99965.59;5071974;28;1485;-58
2020/12/11 11:46:38;;;;;;;;;;;;;;;20.92;42.52;99970.47;5085027;28;868;-53
2020/12/11 11:49:04;;;;;;;;;;;;;;;21.00;42.50;99968.88;5089033;28;1077;-57
2020/12/11 11:51:42;;;;;;;;;;;;;;;21.05;42.13;99973.44;5087331;28;955;-58
2020/12/11 11:54:08;;;;;;;;;;;;;;;20.92;42.47;99972.44;5077214;28;1909;-57
2020/12/11 11:56:33;;;;;;;;;;;;;;;21.07;42.22;99969.22;5075306;28;1117;-54
2020/12/11 11:58:59;;;;;;;;;;;;;;;21.01;42.10;99970.47;5094479;28;962;-57
2020/12/11 12:01:24;;;;;;;;;;;;;;;20.87;42.76;99975.34;5080439;28;1215;-50
2020/12/11 12:03:50;;;;;;;;;;;;;;;21.51;41.29;99975.53;5093933;28;1041;-49
2020/12/11 12:06:22;;;;;;;;;;;;;;;21.78;40.59;99972.78;5082972;28;1014;-47
2020/12/11 12:08:47;;;;;;;;;;;;;;;20.82;42.82;99979.09;5085079;28;1070;-53
2020/12/11 12:11:13;;;;;;;;;;;;;;;20.74;42.70;99977.91;5095620;28;835;-55
2020/12/11 12:13:38;;;;;;;;;;;;;;;19.83;44.55;99974.56;5095841;28;1978;-46
2020/12/11 12:16:03;;;;;;;;;;;;;;;19.58;45.54;99971.28;5097454;28;1205;-56
2020/12/11 12:18:29;;;;;;;;;;;;;;;19.66;45.71;99973.28;5095944;28;1019;-51
2020/12/11 12:21:06;;;;;;;;;;;;;;;19.85;45.04;99975.06;5096106;28;977;-54
2020/12/11 12:27:20;;;;;;;;;;;;;;;19.84;45.02;99976.22;5096714;28;815;-54
2020/12/11 12:29:10;;;;;;;;;;;;;;;20.33;43.94;99984.59;5095244;28;744;-47
2020/12/11 12:31:41;;;;;;;;;;;;;;;20.37;43.84;99985.56;5096072;28;779;-56
2020/12/11 12:44:54;;;;;;;;;;;;;;;20.68;43.21;100004.06;5071324;28;1153;-56
2020/12/11 12:47:19;;;;;;;;;;;;;;;20.67;42.88;100002.41;5091258;28;909;-56
2020/12/11 12:49:44;;;;;;;;;;;;;;;20.45;43.54;100012.38;5095501;28;890;-56
2020/12/11 12:52:10;;;;;;;;;;;;;;;20.46;43.25;100011.25;5096171;28;1909;-55
2020/12/11 12:54:35;;;;;;;;;;;;;;;20.39;43.63;100013.66;5095697;28;779;-55
2020/12/11 12:57:04;;;;;;;;;;;;;;;20.61;43.11;100020.28;5096316;28;822;-46
2020/12/11 13:05:21;;;;;;;;;;;;;;;20.34;43.89;100024.84;5095672;28;969;-53
2020/12/11 13:07:27;;;;;;;;;;;;;;;20.21;44.18;100017.47;5088117;28;1101;-52
2020/12/11 13:09:53;;;;;;;;;;;;;;;20.55;43.26;100024.28;5095784;28;767;-58
2020/12/11 13:12:18;;;;;;;;;;;;;;;20.35;43.82;100032.00;5098474;28;1914;-52
2020/12/11 13:14:44;;;;;;;;;;;;;;;21.13;42.01;100020.41;5107503;28;1129;-57
2020/12/11 13:17:09;;;;;;;;;;;;;;;21.29;41.58;100028.25;5120029;28;976;-56
2020/12/11 13:19:35;;;;;;;;;;;;;;;20.55;43.29;100033.38;5110448;28;1240;-56
2020/12/11 13:27:29;;;;;;;;;;;;;;;19.28;45.21;100030.75;5099653;28;811;-46
2020/12/11 13:29:55;;;;;;;;;;;;;;;19.61;45.79;100033.28;5099598;28;763;-57
2020/12/11 13:32:21;;;;;;;;;;;;;;;19.51;45.77;100044.56;5099498;28;1906;-56
2020/12/11 13:34:47;;;;;;;;;;;;;;;19.55;45.57;100048.31;5099185;28;985;-55
2020/12/11 13:37:12;;;;;;;;;;;;;;;19.85;44.98;100040.47;5099324;28;760;-55
2020/12/11 13:39:38;;;;;;;;;;;;;;;20.03;44.54;100038.66;5099148;28;767;-55
2020/12/11 13:42:04;;;;;;;;;;;;;;;20.08;44.42;100046.81;5099459;28;732;-51
2020/12/11 13:44:30;;;;;;;;;;;;;;;20.16;44.10;100044.09;5099638;28;755;-51
2020/12/11 13:46:55;;;;;;;;;;;;;;;20.43;43.42;100041.47;5098980;28;842;-55
2020/12/11 13:49:21;;;;;;;;;;;;;;;20.16;43.96;100043.25;5098752;28;942;-54